Terminal Aerodrome Forecast
Issued by NWS

Home | Current Version | Previous Version | Text Only | Print | Product List | Glossary On
Versions: 1 2 3 4 5 6 7 8 9 10 11 12 13 14 15 16 17 18 19
000
FTUS41 KBTV 311700
TAFMSS
TAF
KMSS 311722Z 3118/0118 24006KT P6SM VCSH BKN060
      TEMPO 3118/3120 5SM SHRA OVC035
     FM312100 24005KT P6SM SCT040
     FM011500 22009KT P6SM SCT050=

USA.gov is the U.S. government's official web portal to all federal, state and local government web resources and services.